createdAt,value
2022-12-23T00:00:00.000Z,76.22
2022-12-23T00:15:00.000Z,75.39
2022-12-23T00:30:00.000Z,76.43
2022-12-23T00:45:00.000Z,76.63
2022-12-23T01:00:00.000Z,77.09
2022-12-23T01:15:00.000Z,76.62
2022-12-23T01:30:00.000Z,78.31
2022-12-23T01:45:00.000Z,79.82
2022-12-23T02:00:00.000Z,81.44
2022-12-23T02:15:00.000Z,82.23
2022-12-23T02:30:00.000Z,82.37
2022-12-23T02:45:00.000Z,82.62
2022-12-23T03:15:00.000Z,83.09
2022-12-23T03:30:00.000Z,82.81
2022-12-23T03:30:00.000Z,82.62
2022-12-23T03:45:00.000Z,82.58
2022-12-23T04:00:00.000Z,82.8
2022-12-23T04:15:00.000Z,82.75
2022-12-23T04:30:00.000Z,82.62
2022-12-23T04:45:00.000Z,82.77
2022-12-23T05:00:00.000Z,82.63
2022-12-23T05:15:00.000Z,82.67
2022-12-23T05:30:00.000Z,82.56
2022-12-23T05:45:00.000Z,82.44
2022-12-23T06:00:00.000Z,82.64
2022-12-23T06:15:00.000Z,82.43
2022-12-23T06:30:00.000Z,82.4
2022-12-23T06:45:00.000Z,82.17
2022-12-23T07:00:00.000Z,82.1
2022-12-23T07:15:00.000Z,82.21
2022-12-23T07:30:00.000Z,81.95
2022-12-23T07:45:00.000Z,81.85
2022-12-23T08:00:00.000Z,81.2
2022-12-23T08:15:00.000Z,80.71
2022-12-23T08:30:00.000Z,80.16
2022-12-23T08:45:00.000Z,79.75
2022-12-23T09:00:00.000Z,79.55
2022-12-23T09:15:00.000Z,79
2022-12-23T09:30:00.000Z,78.8
2022-12-23T09:45:00.000Z,79.49
2022-12-23T10:00:00.000Z,79.88
2022-12-23T10:15:00.000Z,79.81
2022-12-23T10:30:00.000Z,79.16
2022-12-23T10:45:00.000Z,79.39
2022-12-23T11:00:00.000Z,79.19
2022-12-23T11:15:00.000Z,78.54
2022-12-23T11:30:00.000Z,77.36
2022-12-23T11:45:00.000Z,76.96
2022-12-23T12:00:00.000Z,76.94
2022-12-23T12:15:00.000Z,76.96
2022-12-23T12:30:00.000Z,77.52
2022-12-23T12:45:00.000Z,77.95
2022-12-23T13:00:00.000Z,78.1
2022-12-23T13:15:00.000Z,78.35
2022-12-23T13:30:00.000Z,78.25
2022-12-23T13:45:00.000Z,77.95
2022-12-23T14:00:00.000Z,77.75
2022-12-23T14:15:00.000Z,77.39
2022-12-23T14:30:00.000Z,77.8
2022-12-23T14:45:00.000Z,78.63
2022-12-23T15:00:00.000Z,79.33
2022-12-23T15:15:00.000Z,80.13
2022-12-23T15:30:00.000Z,80.6
2022-12-23T15:45:00.000Z,80.73
2022-12-23T16:15:00.000Z,81.19
2022-12-23T16:15:00.000Z,81.31
2022-12-23T16:30:00.000Z,81.68
2022-12-23T16:45:00.000Z,81.91
2022-12-23T17:00:00.000Z,81.91
2022-12-23T17:30:00.000Z,82.03
2022-12-23T17:30:00.000Z,81.93
2022-12-23T17:45:00.000Z,81.89
2022-12-23T18:00:00.000Z,81.89
2022-12-23T18:15:00.000Z,81.5
2022-12-23T18:30:00.000Z,81.27
2022-12-23T18:45:00.000Z,80.74
2022-12-23T19:00:00.000Z,80.24
2022-12-23T19:15:00.000Z,80.12
2022-12-23T19:30:00.000Z,78.96
2022-12-23T19:45:00.000Z,78.86
2022-12-23T20:00:00.000Z,79.05
2022-12-23T20:15:00.000Z,79
2022-12-23T20:30:00.000Z,78.78
2022-12-23T20:45:00.000Z,78.98
2022-12-23T21:00:00.000Z,79.47
2022-12-23T21:15:00.000Z,80.19
2022-12-23T21:30:00.000Z,80.69
2022-12-23T21:45:00.000Z,80.96
2022-12-23T22:00:00.000Z,80.55
2022-12-23T22:15:00.000Z,80.54
2022-12-23T22:30:00.000Z,80.34
2022-12-23T22:45:00.000Z,80.18
2022-12-23T23:00:00.000Z,80.66
2022-12-23T23:15:00.000Z,81.45
2022-12-23T23:30:00.000Z,81.5
2022-12-23T23:45:00.000Z,81.34
